This is the latest recevied weather packets stored in our database for station/object SV2RIM-2. If no packets are shown the sender has not sent any weather packets the latest 1 day(s).
| Time | Temp. | Humidity | Pressure | Rain* | Wind** | Luminosity | Snow |
|---|---|---|---|---|---|---|---|
| 1778002219 | 20° C | 30% | 1012.3 hPa | - | 1.34 m/s, 305° | - | - |
| 1778001619 | 21.67° C | 28% | 1012.3 hPa | - | 0.89 m/s, 311° | - | - |
| 1778001019 | 22.78° C | 26% | 1012.3 hPa | - | 0 m/s | - | - |
| 1778000419 | 23.89° C | 25% | 1012.2 hPa | - | 0.45 m/s, 219° | - | - |
| 1777999819 | 25° C | 24% | 1012.2 hPa | - | 0.45 m/s, 218° | - | - |
| 1777999219 | 26.67° C | 21% | 1012.2 hPa | - | 0.45 m/s, 202° | - | - |
| 1777998619 | 25° C | 23% | 1012.2 hPa | - | 0.45 m/s, 196° | - | - |
| 1777998019 | 26.11° C | 23% | 1012.2 hPa | - | 0.45 m/s, 203° | - | - |
| 1777997419 | 27.22° C | 23% | 1012.2 hPa | - | 0.45 m/s, 210° | - | - |
| 1777996819 | 30° C | 20% | 1012.2 hPa | - | 0.45 m/s, 208° | - | - |
| 1777996219 | 31.11° C | 19% | 1012.3 hPa | - | 0.45 m/s, 215° | - | - |
| 1777995619 | 28.89° C | 22% | 1012.3 hPa | - | 0.89 m/s, 198° | - | - |
| 1777995019 | 31.67° C | 19% | 1012.3 hPa | - | 0.45 m/s, 186° | - | - |
| 1777994419 | 31.11° C | 20% | 1012.3 hPa | - | 0.89 m/s, 191° | - | - |
| 1777993819 | 31.67° C | 20% | 1012.4 hPa | - | 0.89 m/s, 204° | - | - |
| 1777993219 | 31.67° C | 20% | 1012.4 hPa | - | 0.89 m/s, 198° | - | - |
| 1777992619 | 32.22° C | 20% | 1012.6 hPa | - | 0.89 m/s, 186° | - | - |
| 1777992019 | 31.67° C | 21% | 1012.7 hPa | - | 0.89 m/s, 203° | - | - |
| 1777991419 | 33.33° C | 19% | 1012.7 hPa | - | 0.45 m/s, 297° | - | - |
| 1777990819 | 31.67° C | 22% | 1012.8 hPa | - | 0.89 m/s, 207° | - | - |
| 1777990219 | 32.22° C | 21% | 1012.9 hPa | - | 0.45 m/s, 199° | - | - |
| 1777989619 | 32.78° C | 20% | 1012.9 hPa | - | 0.45 m/s, 220° | - | - |
| 1777989019 | 31.67° C | 22% | 1013 hPa | - | 0.89 m/s, 208° | - | - |
| 1777988419 | 31.67° C | 22% | 1013.2 hPa | - | 0.89 m/s, 223° | - | - |
| 1777987819 | 30° C | 24% | 1013.2 hPa | - | 1.34 m/s, 201° | - | - |
* Rain since midnight (hover to see other rain measurements)
** Current wind speed in m/s (hover to see current wind gust speed)